sensor_id;sensor_type;location;lat;lon;timestamp;P1;durP1;ratioP1;P2;durP2;ratioP2
56331;SDS011;42237;53.340;6.812;2022-11-13T00:00:04;59.33;;;32.17;;
56331;SDS011;42237;53.340;6.812;2022-11-13T00:02:32;47.17;;;31.83;;
56331;SDS011;42237;53.340;6.812;2022-11-13T00:04:58;41.13;;;29.60;;
56331;SDS011;42237;53.340;6.812;2022-11-13T00:07:24;43.65;;;29.75;;
56331;SDS011;42237;53.340;6.812;2022-11-13T00:09:49;50.20;;;32.33;;
56331;SDS011;42237;53.340;6.812;2022-11-13T00:12:15;52.55;;;32.10;;
56331;SDS011;42237;53.340;6.812;2022-11-13T00:14:41;45.60;;;30.02;;
56331;SDS011;42237;53.340;6.812;2022-11-13T00:17:08;46.20;;;31.77;;
56331;SDS011;42237;53.340;6.812;2022-11-13T00:19:33;39.42;;;26.85;;
56331;SDS011;42237;53.340;6.812;2022-11-13T00:21:59;42.40;;;28.35;;
56331;SDS011;42237;53.340;6.812;2022-11-13T00:24:25;38.72;;;27.13;;
56331;SDS011;42237;53.340;6.812;2022-11-13T00:26:50;38.78;;;27.65;;
56331;SDS011;42237;53.340;6.812;2022-11-13T00:29:16;38.60;;;26.65;;
56331;SDS011;42237;53.340;6.812;2022-11-13T00:31:42;44.00;;;29.38;;
56331;SDS011;42237;53.340;6.812;2022-11-13T00:34:08;39.95;;;26.83;;
56331;SDS011;42237;53.340;6.812;2022-11-13T00:36:35;30.65;;;22.92;;
56331;SDS011;42237;53.340;6.812;2022-11-13T00:39:00;35.05;;;25.48;;
56331;SDS011;42237;53.340;6.812;2022-11-13T00:41:26;31.27;;;23.08;;
56331;SDS011;42237;53.340;6.812;2022-11-13T00:43:52;33.25;;;24.38;;
56331;SDS011;42237;53.340;6.812;2022-11-13T00:46:17;30.55;;;22.13;;
56331;SDS011;42237;53.340;6.812;2022-11-13T00:48:44;30.50;;;24.15;;
56331;SDS011;42237;53.340;6.812;2022-11-13T00:51:09;42.00;;;29.08;;
56331;SDS011;42237;53.340;6.812;2022-11-13T00:53:35;37.15;;;27.35;;
56331;SDS011;42237;53.340;6.812;2022-11-13T00:56:01;44.38;;;31.80;;
56331;SDS011;42237;53.340;6.812;2022-11-13T00:58:27;41.78;;;26.75;;
56331;SDS011;42237;53.340;6.812;2022-11-13T01:00:53;44.85;;;30.05;;
56331;SDS011;42237;53.340;6.812;2022-11-13T01:03:19;45.58;;;29.38;;
56331;SDS011;42237;53.340;6.812;2022-11-13T01:05:45;37.92;;;26.77;;
56331;SDS011;42237;53.340;6.812;2022-11-13T01:08:12;38.28;;;26.15;;
56331;SDS011;42237;53.340;6.812;2022-11-13T01:10:41;33.55;;;25.13;;
56331;SDS011;42237;53.340;6.812;2022-11-13T01:13:08;38.10;;;27.48;;
56331;SDS011;42237;53.340;6.812;2022-11-13T01:15:36;36.45;;;27.02;;
56331;SDS011;42237;53.340;6.812;2022-11-13T01:18:06;42.53;;;28.92;;
56331;SDS011;42237;53.340;6.812;2022-11-13T01:20:32;37.55;;;27.10;;
56331;SDS011;42237;53.340;6.812;2022-11-13T01:22:58;46.13;;;32.00;;
56331;SDS011;42237;53.340;6.812;2022-11-13T01:25:24;41.92;;;30.20;;
56331;SDS011;42237;53.340;6.812;2022-11-13T01:27:51;46.05;;;31.25;;
56331;SDS011;42237;53.340;6.812;2022-11-13T01:30:17;46.35;;;31.63;;
56331;SDS011;42237;53.340;6.812;2022-11-13T01:32:42;46.97;;;31.92;;
56331;SDS011;42237;53.340;6.812;2022-11-13T01:35:08;44.53;;;31.20;;
56331;SDS011;42237;53.340;6.812;2022-11-13T01:37:34;53.70;;;34.40;;
56331;SDS011;42237;53.340;6.812;2022-11-13T01:40:00;43.92;;;30.23;;
56331;SDS011;42237;53.340;6.812;2022-11-13T01:42:25;48.47;;;30.02;;
56331;SDS011;42237;53.340;6.812;2022-11-13T01:47:18;35.22;;;25.17;;
56331;SDS011;42237;53.340;6.812;2022-11-13T01:49:46;35.40;;;24.58;;
56331;SDS011;42237;53.340;6.812;2022-11-13T01:52:14;41.72;;;28.08;;
56331;SDS011;42237;53.340;6.812;2022-11-13T01:54:48;36.92;;;24.63;;
56331;SDS011;42237;53.340;6.812;2022-11-13T01:57:17;36.63;;;24.77;;
56331;SDS011;42237;53.340;6.812;2022-11-13T01:59:48;40.45;;;27.00;;
56331;SDS011;42237;53.340;6.812;2022-11-13T02:02:17;34.92;;;24.33;;
56331;SDS011;42237;53.340;6.812;2022-11-13T02:04:43;36.08;;;23.40;;
56331;SDS011;42237;53.340;6.812;2022-11-13T02:07:13;34.72;;;23.23;;
56331;SDS011;42237;53.340;6.812;2022-11-13T02:09:44;35.05;;;23.80;;
56331;SDS011;42237;53.340;6.812;2022-11-13T02:15:10;35.30;;;23.85;;
56331;SDS011;42237;53.340;6.812;2022-11-13T02:17:46;37.70;;;24.15;;
56331;SDS011;42237;53.340;6.812;2022-11-13T02:20:16;38.75;;;24.00;;
56331;SDS011;42237;53.340;6.812;2022-11-13T02:25:32;36.92;;;24.98;;
56331;SDS011;42237;53.340;6.812;2022-11-13T02:27:58;37.42;;;24.15;;
56331;SDS011;42237;53.340;6.812;2022-11-13T02:30:25;36.15;;;25.50;;
56331;SDS011;42237;53.340;6.812;2022-11-13T02:32:54;43.70;;;26.42;;
56331;SDS011;42237;53.340;6.812;2022-11-13T02:35:31;37.13;;;25.20;;
56331;SDS011;42237;53.340;6.812;2022-11-13T02:38:03;36.15;;;24.48;;
56331;SDS011;42237;53.340;6.812;2022-11-13T02:40:30;35.00;;;24.65;;
56331;SDS011;42237;53.340;6.812;2022-11-13T02:42:57;33.00;;;23.73;;
56331;SDS011;42237;53.340;6.812;2022-11-13T02:45:23;40.20;;;24.77;;
56331;SDS011;42237;53.340;6.812;2022-11-13T02:47:48;36.63;;;22.55;;
56331;SDS011;42237;53.340;6.812;2022-11-13T02:50:14;35.22;;;21.92;;
56331;SDS011;42237;53.340;6.812;2022-11-13T02:52:41;33.13;;;21.70;;
56331;SDS011;42237;53.340;6.812;2022-11-13T02:55:07;36.55;;;23.35;;
56331;SDS011;42237;53.340;6.812;2022-11-13T02:57:33;32.63;;;21.48;;
56331;SDS011;42237;53.340;6.812;2022-11-13T02:59:59;31.02;;;21.55;;
56331;SDS011;42237;53.340;6.812;2022-11-13T03:02:24;28.63;;;20.25;;
56331;SDS011;42237;53.340;6.812;2022-11-13T03:04:50;28.88;;;19.98;;
56331;SDS011;42237;53.340;6.812;2022-11-13T03:07:16;31.15;;;20.15;;
56331;SDS011;42237;53.340;6.812;2022-11-13T03:09:41;32.53;;;20.42;;
56331;SDS011;42237;53.340;6.812;2022-11-13T03:12:07;31.85;;;21.25;;
56331;SDS011;42237;53.340;6.812;2022-11-13T03:14:34;32.72;;;21.88;;
56331;SDS011;42237;53.340;6.812;2022-11-13T03:17:00;29.85;;;18.70;;
56331;SDS011;42237;53.340;6.812;2022-11-13T03:19:26;29.30;;;20.90;;
56331;SDS011;42237;53.340;6.812;2022-11-13T03:21:52;31.73;;;21.50;;
56331;SDS011;42237;53.340;6.812;2022-11-13T03:24:18;30.77;;;20.98;;
56331;SDS011;42237;53.340;6.812;2022-11-13T03:26:44;28.10;;;20.30;;
56331;SDS011;42237;53.340;6.812;2022-11-13T03:29:09;33.10;;;21.80;;
56331;SDS011;42237;53.340;6.812;2022-11-13T03:31:35;33.95;;;23.10;;
56331;SDS011;42237;53.340;6.812;2022-11-13T03:34:01;32.03;;;21.33;;
56331;SDS011;42237;53.340;6.812;2022-11-13T03:36:27;27.35;;;19.90;;
56331;SDS011;42237;53.340;6.812;2022-11-13T03:38:53;29.48;;;19.98;;
56331;SDS011;42237;53.340;6.812;2022-11-13T03:41:19;29.83;;;20.73;;
56331;SDS011;42237;53.340;6.812;2022-11-13T03:43:46;35.10;;;21.25;;
56331;SDS011;42237;53.340;6.812;2022-11-13T03:46:12;25.75;;;19.08;;
56331;SDS011;42237;53.340;6.812;2022-11-13T03:48:37;32.05;;;20.48;;
56331;SDS011;42237;53.340;6.812;2022-11-13T03:51:03;28.67;;;18.67;;
56331;SDS011;42237;53.340;6.812;2022-11-13T03:53:29;28.25;;;19.15;;
56331;SDS011;42237;53.340;6.812;2022-11-13T03:55:54;33.45;;;19.05;;
56331;SDS011;42237;53.340;6.812;2022-11-13T03:58:23;28.38;;;19.35;;
56331;SDS011;42237;53.340;6.812;2022-11-13T04:00:49;29.17;;;19.52;;
56331;SDS011;42237;53.340;6.812;2022-11-13T04:03:17;28.38;;;18.92;;
56331;SDS011;42237;53.340;6.812;2022-11-13T04:05:42;23.58;;;17.20;;
56331;SDS011;42237;53.340;6.812;2022-11-13T04:08:10;29.73;;;19.60;;
56331;SDS011;42237;53.340;6.812;2022-11-13T04:10:36;25.05;;;17.45;;
56331;SDS011;42237;53.340;6.812;2022-11-13T04:13:02;27.83;;;18.92;;
56331;SDS011;42237;53.340;6.812;2022-11-13T04:15:28;26.70;;;18.60;;
56331;SDS011;42237;53.340;6.812;2022-11-13T04:17:53;33.33;;;21.23;;
56331;SDS011;42237;53.340;6.812;2022-11-13T04:20:19;25.15;;;18.63;;
56331;SDS011;42237;53.340;6.812;2022-11-13T04:22:44;30.58;;;20.17;;
56331;SDS011;42237;53.340;6.812;2022-11-13T04:25:10;27.50;;;18.63;;
56331;SDS011;42237;53.340;6.812;2022-11-13T04:27:36;31.20;;;21.27;;
56331;SDS011;42237;53.340;6.812;2022-11-13T04:30:02;31.73;;;20.25;;
56331;SDS011;42237;53.340;6.812;2022-11-13T04:32:30;25.67;;;19.05;;
56331;SDS011;42237;53.340;6.812;2022-11-13T04:34:56;24.55;;;18.35;;
56331;SDS011;42237;53.340;6.812;2022-11-13T04:37:22;27.35;;;19.25;;
56331;SDS011;42237;53.340;6.812;2022-11-13T04:39:47;28.23;;;18.83;;
56331;SDS011;42237;53.340;6.812;2022-11-13T04:42:13;28.63;;;19.38;;
56331;SDS011;42237;53.340;6.812;2022-11-13T04:44:57;27.85;;;18.77;;
56331;SDS011;42237;53.340;6.812;2022-11-13T04:47:23;31.75;;;19.70;;
56331;SDS011;42237;53.340;6.812;2022-11-13T04:49:48;24.27;;;17.85;;
56331;SDS011;42237;53.340;6.812;2022-11-13T04:52:14;26.63;;;18.55;;
56331;SDS011;42237;53.340;6.812;2022-11-13T04:54:40;26.45;;;18.88;;
56331;SDS011;42237;53.340;6.812;2022-11-13T04:57:05;24.48;;;17.58;;
56331;SDS011;42237;53.340;6.812;2022-11-13T04:59:31;29.02;;;17.08;;
56331;SDS011;42237;53.340;6.812;2022-11-13T05:01:56;26.33;;;17.00;;
56331;SDS011;42237;53.340;6.812;2022-11-13T05:04:22;23.98;;;17.30;;
56331;SDS011;42237;53.340;6.812;2022-11-13T05:06:48;21.88;;;15.48;;
56331;SDS011;42237;53.340;6.812;2022-11-13T05:09:14;23.50;;;15.55;;
56331;SDS011;42237;53.340;6.812;2022-11-13T05:11:39;24.83;;;16.83;;
56331;SDS011;42237;53.340;6.812;2022-11-13T05:14:05;24.65;;;16.38;;
56331;SDS011;42237;53.340;6.812;2022-11-13T05:16:31;29.83;;;18.42;;
56331;SDS011;42237;53.340;6.812;2022-11-13T05:18:59;25.13;;;17.20;;
56331;SDS011;42237;53.340;6.812;2022-11-13T05:21:25;33.92;;;20.25;;
56331;SDS011;42237;53.340;6.812;2022-11-13T05:23:51;27.95;;;19.25;;
56331;SDS011;42237;53.340;6.812;2022-11-13T05:26:16;28.35;;;18.45;;
56331;SDS011;42237;53.340;6.812;2022-11-13T05:28:42;27.33;;;19.02;;
56331;SDS011;42237;53.340;6.812;2022-11-13T05:33:36;25.40;;;16.92;;
56331;SDS011;42237;53.340;6.812;2022-11-13T05:36:03;27.40;;;17.02;;
56331;SDS011;42237;53.340;6.812;2022-11-13T05:38:39;22.17;;;15.93;;
56331;SDS011;42237;53.340;6.812;2022-11-13T05:43:38;23.90;;;15.90;;
56331;SDS011;42237;53.340;6.812;2022-11-13T05:46:05;22.95;;;15.52;;
56331;SDS011;42237;53.340;6.812;2022-11-13T05:48:36;24.25;;;16.48;;
56331;SDS011;42237;53.340;6.812;2022-11-13T05:51:04;20.42;;;13.52;;
56331;SDS011;42237;53.340;6.812;2022-11-13T05:53:34;25.02;;;16.83;;
56331;SDS011;42237;53.340;6.812;2022-11-13T05:56:01;24.65;;;16.63;;
56331;SDS011;42237;53.340;6.812;2022-11-13T05:58:28;20.58;;;14.85;;
56331;SDS011;42237;53.340;6.812;2022-11-13T06:01:08;18.17;;;13.20;;
56331;SDS011;42237;53.340;6.812;2022-11-13T06:03:42;18.77;;;13.55;;
56331;SDS011;42237;53.340;6.812;2022-11-13T06:06:09;18.73;;;13.82;;
56331;SDS011;42237;53.340;6.812;2022-11-13T06:08:36;18.55;;;13.52;;
56331;SDS011;42237;53.340;6.812;2022-11-13T06:11:04;23.40;;;15.77;;
56331;SDS011;42237;53.340;6.812;2022-11-13T06:13:32;22.67;;;14.55;;
56331;SDS011;42237;53.340;6.812;2022-11-13T06:16:05;18.00;;;13.07;;
56331;SDS011;42237;53.340;6.812;2022-11-13T06:18:58;20.10;;;13.88;;
56331;SDS011;42237;53.340;6.812;2022-11-13T06:21:27;20.30;;;14.18;;
56331;SDS011;42237;53.340;6.812;2022-11-13T06:23:55;22.88;;;15.73;;
56331;SDS011;42237;53.340;6.812;2022-11-13T06:26:22;23.65;;;16.67;;
56331;SDS011;42237;53.340;6.812;2022-11-13T06:28:50;21.30;;;14.15;;
56331;SDS011;42237;53.340;6.812;2022-11-13T06:31:17;25.02;;;16.15;;
56331;SDS011;42237;53.340;6.812;2022-11-13T06:33:45;22.52;;;15.73;;
56331;SDS011;42237;53.340;6.812;2022-11-13T06:36:15;22.45;;;15.63;;
56331;SDS011;42237;53.340;6.812;2022-11-13T06:38:42;22.85;;;15.60;;
56331;SDS011;42237;53.340;6.812;2022-11-13T06:41:09;24.45;;;16.35;;
56331;SDS011;42237;53.340;6.812;2022-11-13T06:43:36;26.55;;;15.60;;
56331;SDS011;42237;53.340;6.812;2022-11-13T06:46:03;24.75;;;15.95;;
56331;SDS011;42237;53.340;6.812;2022-11-13T06:48:31;20.00;;;14.93;;
56331;SDS011;42237;53.340;6.812;2022-11-13T06:51:00;20.85;;;15.73;;
56331;SDS011;42237;53.340;6.812;2022-11-13T06:53:27;24.40;;;15.57;;
56331;SDS011;42237;53.340;6.812;2022-11-13T06:55:53;22.02;;;16.40;;
56331;SDS011;42237;53.340;6.812;2022-11-13T06:58:19;21.48;;;16.75;;
56331;SDS011;42237;53.340;6.812;2022-11-13T07:00:45;23.08;;;16.60;;
56331;SDS011;42237;53.340;6.812;2022-11-13T07:03:17;27.65;;;18.52;;
56331;SDS011;42237;53.340;6.812;2022-11-13T07:05:44;21.85;;;16.58;;
56331;SDS011;42237;53.340;6.812;2022-11-13T07:08:11;23.58;;;16.63;;
56331;SDS011;42237;53.340;6.812;2022-11-13T07:10:37;25.30;;;18.60;;
56331;SDS011;42237;53.340;6.812;2022-11-13T07:13:02;29.20;;;21.30;;
56331;SDS011;42237;53.340;6.812;2022-11-13T07:15:28;25.60;;;18.88;;
56331;SDS011;42237;53.340;6.812;2022-11-13T07:17:58;34.45;;;21.60;;
56331;SDS011;42237;53.340;6.812;2022-11-13T07:20:25;27.08;;;19.35;;
56331;SDS011;42237;53.340;6.812;2022-11-13T07:22:53;29.95;;;20.50;;
56331;SDS011;42237;53.340;6.812;2022-11-13T07:25:20;27.77;;;19.58;;
56331;SDS011;42237;53.340;6.812;2022-11-13T07:27:46;28.77;;;20.75;;
56331;SDS011;42237;53.340;6.812;2022-11-13T07:30:12;27.25;;;19.70;;
56331;SDS011;42237;53.340;6.812;2022-11-13T07:32:37;25.58;;;18.80;;
56331;SDS011;42237;53.340;6.812;2022-11-13T07:35:03;27.33;;;19.67;;
56331;SDS011;42237;53.340;6.812;2022-11-13T07:37:29;25.90;;;20.15;;
56331;SDS011;42237;53.340;6.812;2022-11-13T07:39:55;27.25;;;20.50;;
56331;SDS011;42237;53.340;6.812;2022-11-13T07:42:21;29.42;;;19.92;;
56331;SDS011;42237;53.340;6.812;2022-11-13T07:44:46;28.13;;;19.70;;
56331;SDS011;42237;53.340;6.812;2022-11-13T07:47:12;31.05;;;22.48;;
56331;SDS011;42237;53.340;6.812;2022-11-13T07:49:37;30.27;;;20.60;;
56331;SDS011;42237;53.340;6.812;2022-11-13T07:52:03;30.38;;;21.15;;
56331;SDS011;42237;53.340;6.812;2022-11-13T07:54:29;29.27;;;19.73;;
56331;SDS011;42237;53.340;6.812;2022-11-13T07:56:55;27.77;;;18.92;;
56331;SDS011;42237;53.340;6.812;2022-11-13T07:59:20;41.58;;;19.92;;
56331;SDS011;42237;53.340;6.812;2022-11-13T08:01:46;28.77;;;22.10;;
56331;SDS011;42237;53.340;6.812;2022-11-13T08:04:11;33.50;;;22.13;;
56331;SDS011;42237;53.340;6.812;2022-11-13T08:06:37;31.35;;;21.30;;
56331;SDS011;42237;53.340;6.812;2022-11-13T08:09:03;26.88;;;19.13;;
56331;SDS011;42237;53.340;6.812;2022-11-13T08:11:29;30.08;;;21.20;;
56331;SDS011;42237;53.340;6.812;2022-11-13T08:13:54;28.75;;;19.75;;
56331;SDS011;42237;53.340;6.812;2022-11-13T08:16:20;29.88;;;20.85;;
56331;SDS011;42237;53.340;6.812;2022-11-13T08:18:47;29.92;;;19.60;;
56331;SDS011;42237;53.340;6.812;2022-11-13T08:21:13;28.17;;;20.77;;
56331;SDS011;42237;53.340;6.812;2022-11-13T08:23:39;31.50;;;21.88;;
56331;SDS011;42237;53.340;6.812;2022-11-13T08:26:07;31.05;;;21.70;;
56331;SDS011;42237;53.340;6.812;2022-11-13T08:28:33;30.65;;;21.80;;
56331;SDS011;42237;53.340;6.812;2022-11-13T08:31:00;30.63;;;21.63;;
56331;SDS011;42237;53.340;6.812;2022-11-13T08:33:27;29.33;;;21.15;;
56331;SDS011;42237;53.340;6.812;2022-11-13T08:35:55;28.92;;;20.70;;
56331;SDS011;42237;53.340;6.812;2022-11-13T08:38:22;32.80;;;21.95;;
56331;SDS011;42237;53.340;6.812;2022-11-13T08:40:48;29.73;;;21.60;;
56331;SDS011;42237;53.340;6.812;2022-11-13T08:43:14;29.83;;;20.70;;
56331;SDS011;42237;53.340;6.812;2022-11-13T08:45:39;29.92;;;19.98;;
56331;SDS011;42237;53.340;6.812;2022-11-13T08:48:05;28.25;;;19.98;;
56331;SDS011;42237;53.340;6.812;2022-11-13T08:50:31;31.30;;;19.90;;
56331;SDS011;42237;53.340;6.812;2022-11-13T08:52:58;29.88;;;20.08;;
56331;SDS011;42237;53.340;6.812;2022-11-13T08:55:25;29.08;;;19.13;;
56331;SDS011;42237;53.340;6.812;2022-11-13T08:57:51;28.83;;;20.15;;
56331;SDS011;42237;53.340;6.812;2022-11-13T09:00:17;32.20;;;20.98;;
56331;SDS011;42237;53.340;6.812;2022-11-13T09:02:44;28.35;;;19.70;;
56331;SDS011;42237;53.340;6.812;2022-11-13T09:05:10;29.55;;;19.92;;
56331;SDS011;42237;53.340;6.812;2022-11-13T09:07:36;27.73;;;20.25;;
56331;SDS011;42237;53.340;6.812;2022-11-13T09:10:02;30.20;;;20.98;;
56331;SDS011;42237;53.340;6.812;2022-11-13T09:12:28;29.67;;;20.55;;
56331;SDS011;42237;53.340;6.812;2022-11-13T09:14:53;27.70;;;20.88;;
56331;SDS011;42237;53.340;6.812;2022-11-13T09:17:19;28.52;;;20.40;;
56331;SDS011;42237;53.340;6.812;2022-11-13T09:19:45;31.88;;;22.60;;
56331;SDS011;42237;53.340;6.812;2022-11-13T09:22:11;34.00;;;21.42;;
56331;SDS011;42237;53.340;6.812;2022-11-13T09:24:37;31.48;;;20.90;;
56331;SDS011;42237;53.340;6.812;2022-11-13T09:27:03;33.10;;;21.45;;
56331;SDS011;42237;53.340;6.812;2022-11-13T09:29:28;28.73;;;19.38;;
56331;SDS011;42237;53.340;6.812;2022-11-13T09:31:54;28.67;;;19.63;;
56331;SDS011;42237;53.340;6.812;2022-11-13T09:34:20;30.48;;;21.23;;
56331;SDS011;42237;53.340;6.812;2022-11-13T09:36:46;28.38;;;19.33;;
56331;SDS011;42237;53.340;6.812;2022-11-13T09:39:12;27.17;;;18.88;;
56331;SDS011;42237;53.340;6.812;2022-11-13T09:41:39;28.60;;;19.40;;
56331;SDS011;42237;53.340;6.812;2022-11-13T09:44:13;26.40;;;18.90;;
56331;SDS011;42237;53.340;6.812;2022-11-13T09:46:48;29.20;;;19.13;;
56331;SDS011;42237;53.340;6.812;2022-11-13T09:49:28;26.25;;;18.40;;
56331;SDS011;42237;53.340;6.812;2022-11-13T09:52:11;28.23;;;19.42;;
56331;SDS011;42237;53.340;6.812;2022-11-13T09:54:39;23.88;;;17.55;;
56331;SDS011;42237;53.340;6.812;2022-11-13T09:59:58;24.58;;;17.48;;
56331;SDS011;42237;53.340;6.812;2022-11-13T10:05:31;26.00;;;18.63;;
56331;SDS011;42237;53.340;6.812;2022-11-13T10:08:20;26.58;;;17.85;;
56331;SDS011;42237;53.340;6.812;2022-11-13T10:10:58;25.63;;;17.30;;
56331;SDS011;42237;53.340;6.812;2022-11-13T10:13:37;30.52;;;18.40;;
56331;SDS011;42237;53.340;6.812;2022-11-13T10:19:27;25.38;;;17.60;;
56331;SDS011;42237;53.340;6.812;2022-11-13T10:22:18;24.67;;;17.40;;
56331;SDS011;42237;53.340;6.812;2022-11-13T10:24:49;26.27;;;16.55;;
56331;SDS011;42237;53.340;6.812;2022-11-13T10:27:16;23.35;;;16.92;;
56331;SDS011;42237;53.340;6.812;2022-11-13T10:29:43;24.92;;;17.08;;
56331;SDS011;42237;53.340;6.812;2022-11-13T10:32:20;23.33;;;16.90;;
56331;SDS011;42237;53.340;6.812;2022-11-13T10:34:58;22.73;;;17.38;;
56331;SDS011;42237;53.340;6.812;2022-11-13T10:40:07;23.95;;;15.55;;
56331;SDS011;42237;53.340;6.812;2022-11-13T10:42:42;20.88;;;14.93;;
56331;SDS011;42237;53.340;6.812;2022-11-13T10:45:12;20.98;;;15.40;;
56331;SDS011;42237;53.340;6.812;2022-11-13T10:47:44;20.65;;;14.07;;
56331;SDS011;42237;53.340;6.812;2022-11-13T10:52:48;18.90;;;13.13;;
56331;SDS011;42237;53.340;6.812;2022-11-13T10:58:01;21.00;;;13.52;;
56331;SDS011;42237;53.340;6.812;2022-11-13T11:00:30;19.08;;;13.55;;
56331;SDS011;42237;53.340;6.812;2022-11-13T11:02:57;17.65;;;13.60;;
56331;SDS011;42237;53.340;6.812;2022-11-13T11:05:24;20.50;;;13.98;;
56331;SDS011;42237;53.340;6.812;2022-11-13T11:07:51;18.42;;;13.23;;
56331;SDS011;42237;53.340;6.812;2022-11-13T11:12:54;18.27;;;12.75;;
56331;SDS011;42237;53.340;6.812;2022-11-13T11:15:40;17.48;;;13.07;;
56331;SDS011;42237;53.340;6.812;2022-11-13T11:18:19;16.40;;;12.10;;
56331;SDS011;42237;53.340;6.812;2022-11-13T11:20:51;18.15;;;12.85;;
56331;SDS011;42237;53.340;6.812;2022-11-13T11:26:20;18.23;;;12.75;;
56331;SDS011;42237;53.340;6.812;2022-11-13T11:28:47;17.63;;;12.52;;
56331;SDS011;42237;53.340;6.812;2022-11-13T11:37:04;19.90;;;12.68;;
56331;SDS011;42237;53.340;6.812;2022-11-13T11:39:47;16.48;;;11.45;;
56331;SDS011;42237;53.340;6.812;2022-11-13T11:42:28;21.00;;;12.90;;
56331;SDS011;42237;53.340;6.812;2022-11-13T11:47:35;17.30;;;12.48;;
56331;SDS011;42237;53.340;6.812;2022-11-13T11:50:02;17.02;;;12.10;;
56331;SDS011;42237;53.340;6.812;2022-11-13T11:53:13;16.92;;;11.93;;
56331;SDS011;42237;53.340;6.812;2022-11-13T11:57:58;16.70;;;11.88;;
56331;SDS011;42237;53.340;6.812;2022-11-13T12:00:55;21.20;;;11.30;;
56331;SDS011;42237;53.340;6.812;2022-11-13T12:03:37;14.25;;;10.93;;
56331;SDS011;42237;53.340;6.812;2022-11-13T12:12:02;18.50;;;11.30;;
56331;SDS011;42237;53.340;6.812;2022-11-13T12:14:39;17.65;;;11.48;;
56331;SDS011;42237;53.340;6.812;2022-11-13T12:23:01;15.35;;;10.70;;
56331;SDS011;42237;53.340;6.812;2022-11-13T12:25:53;14.18;;;10.40;;
56331;SDS011;42237;53.340;6.812;2022-11-13T12:28:32;16.35;;;10.25;;
56331;SDS011;42237;53.340;6.812;2022-11-13T12:33:50;14.55;;;10.02;;
56331;SDS011;42237;53.340;6.812;2022-11-13T12:36:23;13.18;;;9.73;;
56331;SDS011;42237;53.340;6.812;2022-11-13T12:38:52;14.82;;;10.32;;
56331;SDS011;42237;53.340;6.812;2022-11-13T12:44:05;14.63;;;10.20;;
56331;SDS011;42237;53.340;6.812;2022-11-13T12:46:41;13.00;;;9.38;;
56331;SDS011;42237;53.340;6.812;2022-11-13T12:52:11;12.60;;;9.43;;
56331;SDS011;42237;53.340;6.812;2022-11-13T12:54:44;13.60;;;9.27;;
56331;SDS011;42237;53.340;6.812;2022-11-13T13:02:46;13.70;;;9.55;;
56331;SDS011;42237;53.340;6.812;2022-11-13T13:05:36;14.98;;;9.43;;
56331;SDS011;42237;53.340;6.812;2022-11-13T13:08:30;15.10;;;10.02;;
56331;SDS011;42237;53.340;6.812;2022-11-13T13:14:20;15.73;;;11.15;;
56331;SDS011;42237;53.340;6.812;2022-11-13T13:19:39;19.17;;;12.18;;
56331;SDS011;42237;53.340;6.812;2022-11-13T13:22:10;15.63;;;11.70;;
56331;SDS011;42237;53.340;6.812;2022-11-13T13:24:56;17.55;;;12.05;;
56331;SDS011;42237;53.340;6.812;2022-11-13T13:28:21;19.08;;;12.10;;
56331;SDS011;42237;53.340;6.812;2022-11-13T13:47:37;17.60;;;11.57;;
56331;SDS011;42237;53.340;6.812;2022-11-13T13:50:10;19.20;;;13.65;;
56331;SDS011;42237;53.340;6.812;2022-11-13T13:52:40;17.13;;;13.38;;
56331;SDS011;42237;53.340;6.812;2022-11-13T13:55:15;16.00;;;11.90;;
56331;SDS011;42237;53.340;6.812;2022-11-13T13:57:48;16.95;;;12.70;;
56331;SDS011;42237;53.340;6.812;2022-11-13T14:00:14;18.70;;;12.27;;
56331;SDS011;42237;53.340;6.812;2022-11-13T14:02:46;17.40;;;11.40;;
56331;SDS011;42237;53.340;6.812;2022-11-13T14:05:31;17.30;;;12.20;;
56331;SDS011;42237;53.340;6.812;2022-11-13T14:08:00;18.25;;;11.20;;
56331;SDS011;42237;53.340;6.812;2022-11-13T14:10:31;16.88;;;12.43;;
56331;SDS011;42237;53.340;6.812;2022-11-13T14:13:00;17.45;;;11.25;;
56331;SDS011;42237;53.340;6.812;2022-11-13T14:15:31;17.58;;;11.50;;
56331;SDS011;42237;53.340;6.812;2022-11-13T14:18:31;14.68;;;10.65;;
56331;SDS011;42237;53.340;6.812;2022-11-13T14:20:52;15.75;;;10.13;;
56331;SDS011;42237;53.340;6.812;2022-11-13T14:25:48;15.13;;;10.05;;
56331;SDS011;42237;53.340;6.812;2022-11-13T14:28:16;16.38;;;11.15;;
56331;SDS011;42237;53.340;6.812;2022-11-13T14:30:50;14.10;;;10.45;;
56331;SDS011;42237;53.340;6.812;2022-11-13T14:33:27;13.32;;;9.65;;
56331;SDS011;42237;53.340;6.812;2022-11-13T14:35:55;15.48;;;10.60;;
56331;SDS011;42237;53.340;6.812;2022-11-13T14:38:24;15.00;;;10.73;;
56331;SDS011;42237;53.340;6.812;2022-11-13T14:40:52;15.73;;;11.13;;
56331;SDS011;42237;53.340;6.812;2022-11-13T14:43:22;15.63;;;11.30;;
56331;SDS011;42237;53.340;6.812;2022-11-13T14:46:01;16.08;;;11.15;;
56331;SDS011;42237;53.340;6.812;2022-11-13T14:48:32;15.20;;;11.57;;
56331;SDS011;42237;53.340;6.812;2022-11-13T14:51:00;16.75;;;11.43;;
56331;SDS011;42237;53.340;6.812;2022-11-13T14:53:31;13.82;;;10.43;;
56331;SDS011;42237;53.340;6.812;2022-11-13T14:56:07;16.42;;;11.38;;
56331;SDS011;42237;53.340;6.812;2022-11-13T14:58:40;18.35;;;11.35;;
56331;SDS011;42237;53.340;6.812;2022-11-13T15:03:39;17.40;;;12.02;;
56331;SDS011;42237;53.340;6.812;2022-11-13T15:06:09;17.55;;;12.02;;
56331;SDS011;42237;53.340;6.812;2022-11-13T15:08:38;16.63;;;11.95;;
56331;SDS011;42237;53.340;6.812;2022-11-13T15:11:04;18.20;;;11.93;;
56331;SDS011;42237;53.340;6.812;2022-11-13T15:13:30;15.88;;;11.05;;
56331;SDS011;42237;53.340;6.812;2022-11-13T15:15:56;16.27;;;11.13;;
56331;SDS011;42237;53.340;6.812;2022-11-13T15:18:21;16.45;;;12.13;;
56331;SDS011;42237;53.340;6.812;2022-11-13T15:20:48;18.27;;;12.55;;
56331;SDS011;42237;53.340;6.812;2022-11-13T15:23:14;16.20;;;11.75;;
56331;SDS011;42237;53.340;6.812;2022-11-13T15:25:40;26.85;;;13.00;;
56331;SDS011;42237;53.340;6.812;2022-11-13T15:28:07;16.73;;;11.45;;
56331;SDS011;42237;53.340;6.812;2022-11-13T15:30:32;20.23;;;12.63;;
56331;SDS011;42237;53.340;6.812;2022-11-13T15:32:58;18.08;;;12.05;;
56331;SDS011;42237;53.340;6.812;2022-11-13T15:35:25;16.85;;;12.13;;
56331;SDS011;42237;53.340;6.812;2022-11-13T15:37:51;17.38;;;12.30;;
56331;SDS011;42237;53.340;6.812;2022-11-13T15:40:16;18.27;;;12.90;;
56331;SDS011;42237;53.340;6.812;2022-11-13T15:42:42;19.02;;;12.75;;
56331;SDS011;42237;53.340;6.812;2022-11-13T15:45:12;16.15;;;11.38;;
56331;SDS011;42237;53.340;6.812;2022-11-13T15:47:40;19.38;;;12.52;;
56331;SDS011;42237;53.340;6.812;2022-11-13T15:50:06;19.20;;;12.77;;
56331;SDS011;42237;53.340;6.812;2022-11-13T15:52:34;18.70;;;13.52;;
56331;SDS011;42237;53.340;6.812;2022-11-13T15:55:02;18.45;;;12.82;;
56331;SDS011;42237;53.340;6.812;2022-11-13T15:57:37;21.77;;;14.05;;
56331;SDS011;42237;53.340;6.812;2022-11-13T16:00:02;17.75;;;12.35;;
56331;SDS011;42237;53.340;6.812;2022-11-13T16:02:31;17.23;;;13.88;;
56331;SDS011;42237;53.340;6.812;2022-11-13T16:04:56;17.10;;;13.55;;
56331;SDS011;42237;53.340;6.812;2022-11-13T16:07:24;19.00;;;13.90;;
56331;SDS011;42237;53.340;6.812;2022-11-13T16:09:51;18.75;;;13.50;;